Time;durP1;ratioP1;P1;durP2;ratioP2;P2;SDS_P1;SDS_P2;PMS_P1;PMS_P2;Temp;Humidity;BMP_temperature;BMP_pressure;BME280_temperature;BME280_humidity;BME280_pressure;Samples;Min_cycle;Max_cycle;Signal;HPM_P1;HPM_P2
2021/10/22 00:01:52;;;;;;;3.63;2.27;;;11.20;99.90;;;;;;5006565;23;20595;-63
2021/10/22 00:04:36;;;;;;;3.30;1.60;;;11.30;99.90;;;;;;4983671;28;20540;-62
2021/10/22 00:07:03;;;;;;;2.83;1.90;;;11.40;99.90;;;;;;4977015;28;20202;-62
2021/10/22 00:09:30;;;;;;;4.33;2.50;;;11.40;99.90;;;;;;4962783;28;20451;-62
2021/10/22 00:12:02;;;;;;;3.03;1.77;;;11.40;99.90;;;;;;4980047;28;20476;-63
2021/10/22 00:14:34;;;;;;;10.23;2.50;;;11.60;99.90;;;;;;4964822;28;20468;-63
2021/10/22 00:17:04;;;;;;;2.80;2.40;;;11.50;99.90;;;;;;4979187;28;20481;-63
2021/10/22 00:19:33;;;;;;;3.53;1.80;;;11.40;99.90;;;;;;4979111;28;20804;-63
2021/10/22 00:22:00;;;;;;;2.63;2.30;;;11.40;99.90;;;;;;5017886;23;20872;-63
2021/10/22 00:24:27;;;;;;;4.40;1.87;;;11.00;99.90;;;;;;5023066;28;20439;-62
2021/10/22 00:26:52;;;;;;;3.60;2.57;;;11.10;99.90;;;;;;5029354;28;20534;-63
2021/10/22 00:29:19;;;;;;;4.03;2.20;;;11.10;99.90;;;;;;5019587;28;20539;-63
2021/10/22 00:31:44;;;;;;;1.90;1.73;;;11.10;99.90;;;;;;5018277;28;20211;-63
2021/10/22 00:35:06;;;;;;;6.23;1.70;;;11.10;99.90;;;;;;5018185;28;20467;-69
2021/10/22 00:37:41;;;;;;;2.83;2.50;;;10.80;99.90;;;;;;4993834;28;20240;-63
2021/10/22 00:43:19;;;;;;;2.30;2.10;;;10.70;99.90;;;;;;5068657;23;20498;-64
2021/10/22 00:45:44;;;;;;;3.00;1.83;;;10.70;99.90;;;;;;4995320;28;20719;-62
2021/10/22 00:48:10;;;;;;;3.63;2.07;;;10.40;99.90;;;;;;4998228;28;20443;-62
2021/10/22 00:50:40;;;;;;;2.30;1.90;;;10.30;99.90;;;;;;5012988;28;20209;-62
2021/10/22 00:53:07;;;;;;;2.50;2.00;;;10.40;99.90;;;;;;5002543;28;20185;-62
2021/10/22 00:55:34;;;;;;;4.30;2.60;;;10.30;99.90;;;;;;4988272;28;20550;-61
2021/10/22 00:58:00;;;;;;;4.70;1.97;;;10.30;99.90;;;;;;4981354;28;20447;-62
2021/10/22 01:00:31;;;;;;;7.73;2.47;;;10.30;99.90;;;;;;4999246;28;20479;-70
2021/10/22 01:02:58;;;;;;;2.03;1.80;;;10.40;99.90;;;;;;4999622;28;20261;-70
2021/10/22 01:05:24;;;;;;;2.93;2.30;;;10.40;99.90;;;;;;5001800;28;20856;-64
2021/10/22 01:07:49;;;;;;;4.40;2.50;;;10.40;99.90;;;;;;4983470;28;20454;-64
2021/10/22 01:11:00;;;;;;;3.77;2.20;;;10.40;99.90;;;;;;4996608;28;20255;-64
2021/10/22 01:13:30;;;;;;;2.83;1.87;;;10.40;99.90;;;;;;4985318;28;20581;-71
2021/10/22 01:15:56;;;;;;;4.80;2.13;;;10.30;99.90;;;;;;4999577;28;20934;-65
2021/10/22 01:18:24;;;;;;;2.80;2.10;;;10.20;99.90;;;;;;5002010;28;20438;-64
2021/10/22 01:21:02;;;;;;;5.40;2.20;;;10.30;99.90;;;;;;4996714;28;20609;-61
2021/10/22 01:23:36;;;;;;;6.80;2.70;;;10.30;99.90;;;;;;5004547;28;20432;-63
2021/10/22 01:26:23;;;;;;;3.37;2.57;;;10.30;99.90;;;;;;5002687;28;20481;-64
2021/10/22 01:28:49;;;;;;;10.77;3.17;;;10.00;99.90;;;;;;5001426;28;20446;-63
2021/10/22 01:31:24;;;;;;;5.03;3.10;;;10.00;99.90;;;;;;4998909;28;20458;-60
2021/10/22 01:34:05;;;;;;;3.20;2.17;;;10.00;99.90;;;;;;4983507;28;20483;-64
2021/10/22 01:36:33;;;;;;;5.63;2.30;;;9.90;99.90;;;;;;4984451;28;20455;-64
2021/10/22 01:39:05;;;;;;;3.60;2.37;;;9.80;99.90;;;;;;4984251;28;20444;-63
2021/10/22 01:41:32;;;;;;;4.53;3.00;;;9.60;99.90;;;;;;4981152;28;20482;-69
2021/10/22 01:44:01;;;;;;;6.43;2.67;;;9.80;99.90;;;;;;4979280;28;20484;-70
2021/10/22 01:46:28;;;;;;;2.30;1.87;;;9.90;99.90;;;;;;5001736;28;20450;-70
2021/10/22 01:48:57;;;;;;;3.20;2.20;;;10.00;99.90;;;;;;4996532;28;20445;-63
2021/10/22 01:51:29;;;;;;;3.20;2.67;;;10.10;99.90;;;;;;4967924;28;20502;-63
2021/10/22 01:53:55;;;;;;;2.33;2.03;;;10.20;99.90;;;;;;5000888;28;20487;-61
2021/10/22 01:56:20;;;;;;;3.60;1.97;;;10.20;99.90;;;;;;5000246;28;20481;-61
2021/10/22 01:58:49;;;;;;;4.40;2.80;;;10.10;99.90;;;;;;4997876;28;20441;-61
2021/10/22 02:01:14;;;;;;;3.50;2.80;;;9.90;99.90;;;;;;5003702;28;20288;-61
2021/10/22 02:03:41;;;;;;;2.43;1.97;;;9.80;99.90;;;;;;4997505;28;20542;-69
2021/10/22 02:06:07;;;;;;;4.30;2.53;;;9.70;99.90;;;;;;4999599;28;20193;-69
2021/10/22 02:08:33;;;;;;;4.60;2.60;;;9.80;99.90;;;;;;4986976;28;20712;-63
2021/10/22 02:11:02;;;;;;;2.57;2.13;;;9.60;99.90;;;;;;5002176;28;20471;-62
2021/10/22 02:13:29;;;;;;;4.47;2.90;;;9.40;99.90;;;;;;4985377;28;20458;-63
2021/10/22 02:15:55;;;;;;;4.10;2.30;;;9.50;99.90;;;;;;5002187;28;20441;-63
2021/10/22 02:18:21;;;;;;;3.63;2.40;;;9.40;99.90;;;;;;4986685;28;20774;-62
2021/10/22 02:21:05;;;;;;;4.33;2.80;;;9.70;99.90;;;;;;5008335;23;20535;-63
2021/10/22 02:23:34;;;;;;;9.50;3.17;;;9.70;99.90;;;;;;4988672;28;20436;-60
2021/10/22 02:26:01;;;;;;;3.20;2.83;;;9.80;99.90;;;;;;4984728;28;20875;-60
2021/10/22 02:28:26;;;;;;;4.17;2.77;;;9.70;99.90;;;;;;4990046;28;20432;-62
2021/10/22 02:30:54;;;;;;;3.53;2.47;;;9.60;99.90;;;;;;4999475;28;21044;-63
2021/10/22 02:33:20;;;;;;;6.20;3.47;;;9.40;99.90;;;;;;4983727;28;20201;-70
2021/10/22 02:35:47;;;;;;;4.43;2.93;;;9.40;99.90;;;;;;4984751;28;20463;-69
2021/10/22 02:38:13;;;;;;;4.13;2.87;;;9.30;99.90;;;;;;4963072;28;20444;-69
2021/10/22 02:40:38;;;;;;;3.80;3.23;;;9.40;99.90;;;;;;5001116;28;21117;-69
2021/10/22 02:43:04;;;;;;;4.80;3.10;;;9.30;99.90;;;;;;4997715;28;20758;-70
2021/10/22 02:45:42;;;;;;;6.10;3.00;;;9.20;99.90;;;;;;5001991;28;20189;-69
2021/10/22 02:48:14;;;;;;;4.90;2.97;;;9.10;99.90;;;;;;4984375;28;20189;-69
2021/10/22 02:50:41;;;;;;;3.90;2.70;;;9.10;99.90;;;;;;5005548;28;20491;-60
2021/10/22 02:53:07;;;;;;;6.43;3.13;;;8.90;99.90;;;;;;4990401;28;20443;-61
2021/10/22 02:55:35;;;;;;;3.33;2.60;;;9.10;99.90;;;;;;5004089;28;20463;-60
2021/10/22 02:58:02;;;;;;;6.10;3.17;;;9.10;99.90;;;;;;5000546;28;20235;-60
2021/10/22 03:00:27;;;;;;;3.23;2.70;;;9.00;99.90;;;;;;4988309;28;20684;-60
2021/10/22 03:02:53;;;;;;;3.20;2.63;;;9.10;99.90;;;;;;5000341;28;20489;-60
2021/10/22 03:05:22;;;;;;;4.50;2.80;;;9.30;99.90;;;;;;4997768;28;20205;-60
2021/10/22 03:07:48;;;;;;;9.70;2.90;;;9.30;99.90;;;;;;4995044;28;20220;-69
2021/10/22 03:10:16;;;;;;;3.93;2.90;;;9.10;99.90;;;;;;5000215;28;20546;-69
2021/10/22 03:12:42;;;;;;;5.80;2.97;;;9.00;99.90;;;;;;4988151;28;20575;-69
2021/10/22 03:15:46;;;;;;;4.70;3.40;;;8.90;99.90;;;;;;5005821;28;20468;-63
2021/10/22 03:18:11;;;;;;;7.13;2.90;;;9.10;99.90;;;;;;4973124;28;20197;-64
2021/10/22 03:20:39;;;;;;;4.30;3.10;;;9.10;99.90;;;;;;4972919;28;21020;-64
2021/10/22 03:23:09;;;;;;;3.60;2.93;;;8.90;99.90;;;;;;4998692;28;20190;-63
2021/10/22 03:25:36;;;;;;;6.80;2.87;;;8.90;99.90;;;;;;4985002;28;20447;-63
2021/10/22 03:28:04;;;;;;;7.23;3.47;;;9.00;99.90;;;;;;5006085;28;20451;-61
2021/10/22 03:30:31;;;;;;;4.90;3.00;;;8.80;99.90;;;;;;4983066;28;21007;-60
2021/10/22 03:32:57;;;;;;;7.47;2.73;;;8.80;99.90;;;;;;5001615;28;20472;-60
2021/10/22 03:35:23;;;;;;;5.07;3.00;;;8.90;99.90;;;;;;4984507;28;20622;-60
2021/10/22 03:37:53;;;;;;;4.93;3.10;;;9.00;99.90;;;;;;5001986;28;20235;-69
2021/10/22 03:40:20;;;;;;;4.50;3.57;;;8.90;99.90;;;;;;4986362;28;20440;-63
2021/10/22 03:42:47;;;;;;;4.07;2.97;;;8.80;99.90;;;;;;5000198;28;20978;-64
2021/10/22 03:45:17;;;;;;;12.33;3.20;;;8.80;99.90;;;;;;4999142;28;20441;-69
2021/10/22 03:47:44;;;;;;;6.70;3.80;;;8.70;99.90;;;;;;4989599;28;20513;-70
2021/10/22 03:50:13;;;;;;;5.23;3.80;;;8.70;99.90;;;;;;4990662;28;20473;-69
2021/10/22 03:52:40;;;;;;;5.20;3.63;;;8.70;99.90;;;;;;4985675;28;20462;-69
2021/10/22 03:55:06;;;;;;;3.13;2.80;;;8.50;99.90;;;;;;4986391;28;20475;-69
2021/10/22 03:57:32;;;;;;;4.73;3.57;;;8.60;99.90;;;;;;5000058;28;20954;-70
2021/10/22 03:59:57;;;;;;;4.10;3.20;;;8.60;99.90;;;;;;4977770;28;20448;-69
2021/10/22 04:02:24;;;;;;;6.00;3.77;;;8.70;99.90;;;;;;4985376;28;20466;-69
2021/10/22 04:04:49;;;;;;;4.77;3.60;;;8.70;99.90;;;;;;4981656;28;20461;-69
2021/10/22 04:07:16;;;;;;;4.70;2.90;;;8.60;99.90;;;;;;5001401;28;20879;-64
2021/10/22 04:09:41;;;;;;;4.63;3.20;;;8.70;99.90;;;;;;4986478;28;20597;-69
2021/10/22 04:12:10;;;;;;;3.80;3.40;;;8.60;99.90;;;;;;4998482;28;20469;-69
2021/10/22 04:14:39;;;;;;;4.20;3.57;;;8.70;99.90;;;;;;4999210;28;20205;-69
2021/10/22 04:17:05;;;;;;;4.10;3.13;;;8.60;99.90;;;;;;4985285;28;20468;-69
2021/10/22 04:19:32;;;;;;;13.70;3.77;;;8.50;99.90;;;;;;4989699;28;20809;-64
2021/10/22 04:22:13;;;;;;;4.10;3.30;;;8.60;99.90;;;;;;4989025;28;20460;-69
2021/10/22 04:24:38;;;;;;;6.17;3.30;;;8.60;99.90;;;;;;4997649;28;20510;-64
2021/10/22 04:27:05;;;;;;;3.67;3.13;;;8.60;99.90;;;;;;4999838;28;20962;-63
2021/10/22 04:29:33;;;;;;;6.60;3.80;;;8.60;99.90;;;;;;4982785;28;20331;-64
2021/10/22 04:32:00;;;;;;;7.83;3.90;;;8.70;99.90;;;;;;4987217;28;20562;-64
2021/10/22 04:34:28;;;;;;;3.80;3.17;;;8.70;99.90;;;;;;4980384;28;20666;-64
2021/10/22 04:37:22;;;;;;;7.80;3.20;;;8.50;99.90;;;;;;5000098;28;20448;-60
2021/10/22 04:42:41;;;;;;;4.77;3.33;;;8.40;99.90;;;;;;4987014;28;20449;-60
2021/10/22 04:45:11;;;;;;;7.50;3.97;;;8.30;99.90;;;;;;4990431;28;20444;-60
2021/10/22 04:47:38;;;;;;;9.13;4.43;;;8.20;99.90;;;;;;5003871;28;20440;-60
2021/10/22 04:50:05;;;;;;;4.50;3.50;;;8.10;99.90;;;;;;4985991;28;20451;-60
2021/10/22 04:52:34;;;;;;;4.47;4.03;;;8.30;99.90;;;;;;4986255;28;20479;-60
2021/10/22 04:55:01;;;;;;;5.77;4.70;;;8.30;99.90;;;;;;5002316;28;20471;-60
2021/10/22 04:57:30;;;;;;;5.77;3.73;;;8.30;99.90;;;;;;5004724;28;20498;-60
2021/10/22 04:59:56;;;;;;;6.83;4.90;;;8.40;99.90;;;;;;4969649;28;20468;-60
2021/10/22 05:02:22;;;;;;;5.87;4.20;;;8.40;99.90;;;;;;4984233;28;20951;-60
2021/10/22 05:04:48;;;;;;;5.73;4.20;;;8.30;99.90;;;;;;5004692;28;20448;-60
2021/10/22 05:07:17;;;;;;;5.60;4.30;;;8.40;99.90;;;;;;5003343;28;20219;-61
2021/10/22 05:09:46;;;;;;;5.57;4.20;;;8.30;99.90;;;;;;5003429;28;20885;-62
2021/10/22 05:12:11;;;;;;;5.23;4.20;;;8.20;99.90;;;;;;4987241;28;20838;-71
2021/10/22 05:14:38;;;;;;;15.80;4.50;;;8.30;99.90;;;;;;5003892;28;20868;-70
2021/10/22 05:17:06;;;;;;;5.40;4.03;;;8.30;99.90;;;;;;5003664;28;20189;-70
2021/10/22 05:19:36;;;;;;;5.10;3.93;;;8.30;99.90;;;;;;5005477;28;20523;-64
2021/10/22 05:22:02;;;;;;;8.27;5.20;;;8.20;99.90;;;;;;4983362;28;20506;-65
2021/10/22 05:24:27;;;;;;;6.87;3.87;;;8.20;99.90;;;;;;5005191;28;20541;-63
2021/10/22 05:26:53;;;;;;;5.70;4.13;;;8.10;99.90;;;;;;5004252;28;20196;-63
2021/10/22 05:29:26;;;;;;;6.73;4.70;;;7.90;99.90;;;;;;4995097;28;20189;-63
2021/10/22 05:31:54;;;;;;;6.70;5.00;;;7.80;99.90;;;;;;4984123;28;20539;-61
2021/10/22 05:34:30;;;;;;;6.90;5.20;;;7.90;99.90;;;;;;5002024;28;20961;-63
2021/10/22 05:36:56;;;;;;;7.17;5.30;;;7.80;99.90;;;;;;5001586;28;20455;-63
2021/10/22 05:39:31;;;;;;;6.90;5.10;;;7.80;99.90;;;;;;5003633;28;20923;-64
2021/10/22 05:41:57;;;;;;;8.80;5.47;;;7.80;99.90;;;;;;5008083;28;20215;-65
2021/10/22 05:44:25;;;;;;;8.60;5.20;;;7.90;99.90;;;;;;5003287;28;20428;-64
2021/10/22 05:46:55;;;;;;;8.87;6.33;;;7.90;99.90;;;;;;4984445;28;20535;-64
2021/10/22 05:49:22;;;;;;;7.73;5.27;;;7.80;99.90;;;;;;4999415;28;20526;-65
2021/10/22 05:51:49;;;;;;;10.23;5.07;;;7.80;99.90;;;;;;4986627;28;20505;-64
2021/10/22 05:54:20;;;;;;;11.00;5.83;;;7.80;99.90;;;;;;4988059;28;20515;-64
2021/10/22 05:57:03;;;;;;;10.00;6.13;;;7.80;99.90;;;;;;5001632;28;20440;-63
2021/10/22 05:59:33;;;;;;;8.80;5.70;;;7.70;99.90;;;;;;5004146;28;20444;-63
2021/10/22 06:01:59;;;;;;;10.90;5.70;;;7.70;99.90;;;;;;4990964;28;20479;-63
2021/10/22 06:04:26;;;;;;;6.97;5.97;;;7.80;99.90;;;;;;5004123;28;20460;-63
2021/10/22 06:06:53;;;;;;;19.77;6.33;;;7.90;99.90;;;;;;4987736;28;20973;-64
2021/10/22 06:09:22;;;;;;;7.60;5.97;;;7.90;99.90;;;;;;4989848;28;20814;-64
2021/10/22 06:11:49;;;;;;;7.70;6.43;;;7.90;99.90;;;;;;5002904;28;20451;-65
2021/10/22 06:14:35;;;;;;;11.47;7.53;;;8.00;99.90;;;;;;4988753;28;20472;-64
2021/10/22 06:17:02;;;;;;;13.87;9.67;;;8.00;99.90;;;;;;5000869;28;20454;-65
2021/10/22 06:19:33;;;;;;;17.37;8.30;;;8.00;99.90;;;;;;5000161;28;20500;-63
2021/10/22 06:24:42;;;;;;;16.60;9.03;;;7.80;99.90;;;;;;5004901;28;20530;-63
2021/10/22 06:27:09;;;;;;;13.47;8.20;;;7.70;99.90;;;;;;5006380;28;20518;-63
2021/10/22 06:29:35;;;;;;;15.13;9.90;;;7.80;99.90;;;;;;4992634;28;20188;-63
2021/10/22 06:32:02;;;;;;;12.67;8.47;;;7.70;99.90;;;;;;5005544;28;20975;-63
2021/10/22 06:34:31;;;;;;;23.17;11.20;;;7.60;99.90;;;;;;4988258;28;21027;-63
2021/10/22 06:36:57;;;;;;;21.80;12.20;;;7.60;99.90;;;;;;5010021;28;20428;-63
2021/10/22 06:39:23;;;;;;;14.73;9.90;;;7.70;99.90;;;;;;5009684;28;20434;-63
2021/10/22 06:41:50;;;;;;;18.27;10.40;;;7.70;99.90;;;;;;5009466;28;20727;-63
2021/10/22 06:44:23;;;;;;;13.57;8.77;;;7.60;99.90;;;;;;4989922;28;20446;-63
2021/10/22 06:46:57;;;;;;;14.73;9.70;;;7.60;99.90;;;;;;4989283;28;20439;-62
2021/10/22 06:49:26;;;;;;;14.63;9.67;;;7.60;99.90;;;;;;5006887;28;20483;-60
2021/10/22 06:51:52;;;;;;;16.40;9.57;;;7.50;99.90;;;;;;4991491;28;20467;-63
2021/10/22 06:54:18;;;;;;;15.07;8.73;;;7.50;99.90;;;;;;5006341;28;20460;-63
2021/10/22 06:56:44;;;;;;;12.00;8.30;;;7.50;99.90;;;;;;5008994;28;20457;-63
2021/10/22 06:59:09;;;;;;;15.20;8.70;;;7.50;99.90;;;;;;5004226;28;20233;-63
2021/10/22 07:01:36;;;;;;;13.87;8.90;;;7.50;99.90;;;;;;5008510;28;20222;-64
2021/10/22 07:04:02;;;;;;;15.90;9.53;;;7.40;99.90;;;;;;4991779;28;20714;-64
2021/10/22 07:09:16;;;;;;;15.70;11.70;;;7.60;99.90;;;;;;5006423;28;20872;-64
2021/10/22 07:11:44;;;;;;;18.80;10.60;;;7.60;99.90;;;;;;4991754;28;20510;-64
2021/10/22 07:14:11;;;;;;;15.33;9.60;;;7.70;99.90;;;;;;4993071;28;20475;-64
2021/10/22 07:16:41;;;;;;;15.70;9.07;;;7.60;99.90;;;;;;5006008;28;20435;-64
2021/10/22 07:19:10;;;;;;;18.37;9.60;;;7.50;99.90;;;;;;4989670;28;20219;-64
2021/10/22 07:21:43;;;;;;;14.17;9.20;;;7.50;99.90;;;;;;4993407;28;20550;-64
2021/10/22 07:24:17;;;;;;;18.47;10.67;;;7.60;99.90;;;;;;4990787;28;20867;-64
2021/10/22 07:26:43;;;;;;;20.73;10.00;;;7.70;99.90;;;;;;4990051;28;20457;-64
2021/10/22 07:29:12;;;;;;;13.70;9.10;;;7.80;99.90;;;;;;5008723;28;20444;-63
2021/10/22 07:31:41;;;;;;;13.53;9.73;;;7.70;99.90;;;;;;5002929;28;20667;-63
2021/10/22 07:34:08;;;;;;;15.70;9.20;;;7.70;99.90;;;;;;5001928;28;20705;-62
2021/10/22 07:36:37;;;;;;;15.80;9.40;;;7.60;99.90;;;;;;4992760;28;20447;-62
2021/10/22 07:39:09;;;;;;;14.70;9.90;;;7.70;99.90;;;;;;4993627;28;20758;-64
2021/10/22 07:41:35;;;;;;;17.43;9.17;;;7.60;99.90;;;;;;4999852;28;20669;-62
2021/10/22 07:44:04;;;;;;;18.67;10.00;;;7.70;99.90;;;;;;5004873;28;20432;-62
2021/10/22 07:46:30;;;;;;;16.93;10.70;;;7.70;99.90;;;;;;4991333;28;20205;-62
2021/10/22 07:48:56;;;;;;;17.53;9.73;;;7.60;99.90;;;;;;4990400;28;20470;-62
2021/10/22 07:51:23;;;;;;;24.73;10.70;;;7.50;99.90;;;;;;4981810;28;20481;-63
2021/10/22 07:53:49;;;;;;;15.87;9.50;;;7.60;99.90;;;;;;5007439;28;20426;-63
2021/10/22 07:56:15;;;;;;;16.20;10.07;;;7.50;99.90;;;;;;4988330;28;20444;-63
2021/10/22 07:58:43;;;;;;;16.57;10.10;;;7.60;99.90;;;;;;5006729;28;20793;-61
2021/10/22 08:01:09;;;;;;;18.37;10.60;;;7.60;99.90;;;;;;5005529;28;20463;-63
2021/10/22 08:03:35;;;;;;;17.37;9.87;;;7.70;99.90;;;;;;5004302;28;20497;-63
2021/10/22 08:06:03;;;;;;;25.57;11.77;;;7.70;99.90;;;;;;4991008;28;20448;-60
2021/10/22 08:08:29;;;;;;;13.33;9.77;;;7.80;99.90;;;;;;5006138;28;20451;-63
2021/10/22 08:11:07;;;;;;;20.20;10.37;;;7.90;99.90;;;;;;5002338;28;20507;-63
2021/10/22 08:13:41;;;;;;;18.60;10.23;;;8.00;99.90;;;;;;4976425;28;20442;-63
2021/10/22 08:16:07;;;;;;;14.53;10.03;;;8.10;99.90;;;;;;4989290;28;20443;-63
2021/10/22 08:18:33;;;;;;;12.40;9.83;;;8.10;99.90;;;;;;4988185;28;20430;-64
2021/10/22 08:21:14;;;;;;;23.03;11.50;;;8.00;99.90;;;;;;4989584;28;20468;-63
2021/10/22 08:23:40;;;;;;;24.97;11.37;;;7.80;99.90;;;;;;4988937;28;20189;-63
2021/10/22 08:26:06;;;;;;;20.47;10.97;;;7.70;99.90;;;;;;4982737;28;20466;-63
2021/10/22 08:28:33;;;;;;;16.13;9.37;;;7.70;99.90;;;;;;4987566;28;20472;-63
2021/10/22 08:30:59;;;;;;;18.63;10.37;;;7.60;99.90;;;;;;4969882;28;20464;-63
2021/10/22 08:33:28;;;;;;;17.50;11.00;;;7.60;99.90;;;;;;4989090;28;20974;-63
2021/10/22 08:36:00;;;;;;;22.50;7.37;;;7.60;99.90;;;;;;4991882;28;20502;-63
2021/10/22 08:38:26;;;;;;;14.00;9.50;;;7.50;99.90;;;;;;5001577;28;20483;-63
2021/10/22 08:40:56;;;;;;;16.53;9.47;;;7.50;99.90;;;;;;5002376;28;20455;-63
2021/10/22 08:43:25;;;;;;;15.83;9.30;;;7.60;99.90;;;;;;4991447;28;20236;-61
2021/10/22 08:45:54;;;;;;;16.73;9.87;;;7.50;99.90;;;;;;4976023;28;20437;-64
2021/10/22 08:48:35;;;;;;;18.27;9.70;;;7.50;99.90;;;;;;4986760;28;20445;-64
2021/10/22 08:51:01;;;;;;;24.50;10.77;;;7.40;99.90;;;;;;4975588;28;20463;-64
2021/10/22 08:53:28;;;;;;;16.27;9.53;;;7.50;99.90;;;;;;5006156;28;20957;-63
2021/10/22 08:55:55;;;;;;;15.80;9.73;;;7.60;99.90;;;;;;5003792;28;20803;-63
2021/10/22 08:58:21;;;;;;;19.30;10.27;;;7.80;99.90;;;;;;5006430;28;20428;-63
2021/10/22 09:00:50;;;;;;;16.40;9.60;;;7.70;99.90;;;;;;5003623;28;20522;-64
2021/10/22 09:03:20;;;;;;;22.90;11.43;;;7.70;99.90;;;;;;5003350;28;20442;-64
2021/10/22 09:05:59;;;;;;;17.57;11.10;;;7.70;99.90;;;;;;4981573;28;20531;-63
2021/10/22 09:08:33;;;;;;;17.03;10.47;;;7.70;99.90;;;;;;5004558;28;20485;-62
2021/10/22 09:11:22;;;;;;;17.63;10.87;;;7.80;99.90;;;;;;5000090;28;20468;-62
2021/10/22 09:14:17;;;;;;;28.20;10.80;;;7.90;99.90;;;;;;5007995;28;20436;-67
2021/10/22 09:16:49;;;;;;;20.10;9.97;;;8.10;99.90;;;;;;5004795;28;20438;-60
2021/10/22 09:19:33;;;;;;;19.03;10.17;;;8.10;99.90;;;;;;5002656;28;20412;-63
2021/10/22 09:22:23;;;;;;;14.50;9.33;;;8.20;99.90;;;;;;4989921;28;20501;-64
2021/10/22 09:24:52;;;;;;;14.07;8.17;;;8.10;99.90;;;;;;5005781;28;20431;-63
2021/10/22 09:27:38;;;;;;;17.03;10.27;;;8.20;99.90;;;;;;5000731;28;20443;-67
2021/10/22 09:30:07;;;;;;;18.77;9.47;;;8.20;99.90;;;;;;4988562;28;21232;-62
2021/10/22 09:32:47;;;;;;;29.33;10.80;;;8.30;99.90;;;;;;5004467;28;20443;-60
2021/10/22 09:35:13;;;;;;;20.93;9.10;;;8.30;99.90;;;;;;5005027;28;20480;-60
2021/10/22 09:37:40;;;;;;;13.40;9.47;;;8.30;99.90;;;;;;4991737;28;20519;-63
2021/10/22 09:40:07;;;;;;;21.80;9.50;;;8.30;99.90;;;;;;4999782;28;20447;-68
2021/10/22 09:42:34;;;;;;;22.33;9.03;;;8.30;99.90;;;;;;5001877;28;20507;-62
2021/10/22 09:45:00;;;;;;;19.57;8.43;;;8.50;99.90;;;;;;4994795;28;20436;-63
2021/10/22 09:47:26;;;;;;;17.77;7.50;;;8.50;99.90;;;;;;5004518;28;20526;-60
2021/10/22 09:50:08;;;;;;;22.37;8.17;;;8.50;99.90;;;;;;4989226;28;20448;-60
2021/10/22 09:52:34;;;;;;;16.07;6.30;;;8.40;99.90;;;;;;5004074;28;20524;-60
2021/10/22 09:55:14;;;;;;;22.40;6.13;;;8.40;99.90;;;;;;5003829;28;20964;-63
2021/10/22 09:57:45;;;;;;;12.23;7.00;;;8.50;99.90;;;;;;5003820;28;20412;-63
2021/10/22 10:00:21;;;;;;;12.10;7.00;;;8.50;99.90;;;;;;4990381;28;20858;-63
2021/10/22 10:02:49;;;;;;;14.80;8.00;;;8.50;99.90;;;;;;4987251;28;20446;-60
2021/10/22 10:05:18;;;;;;;13.03;6.20;;;8.60;99.90;;;;;;5005157;28;20815;-60
2021/10/22 10:07:46;;;;;;;15.70;6.83;;;8.70;99.90;;;;;;4989134;28;20444;-60
2021/10/22 10:10:13;;;;;;;13.37;5.97;;;8.90;99.90;;;;;;4988694;28;20439;-67
2021/10/22 10:12:40;;;;;;;20.23;7.00;;;9.10;99.90;;;;;;5007890;28;20482;-67
2021/10/22 10:15:08;;;;;;;14.40;6.03;;;9.30;99.90;;;;;;5002806;28;20467;-67
2021/10/22 10:17:38;;;;;;;14.97;6.53;;;9.50;99.90;;;;;;4988066;28;20466;-67
2021/10/22 10:20:05;;;;;;;25.60;6.53;;;9.40;99.90;;;;;;4988573;28;20421;-68
2021/10/22 10:22:33;;;;;;;18.30;7.80;;;9.30;99.90;;;;;;4987359;28;20789;-68
2021/10/22 10:25:03;;;;;;;12.50;6.83;;;9.30;99.90;;;;;;5006517;28;20436;-67
2021/10/22 10:27:42;;;;;;;10.53;5.60;;;9.30;99.90;;;;;;5003793;28;20829;-67
2021/10/22 10:30:15;;;;;;;10.80;5.83;;;9.40;99.90;;;;;;4987347;28;20578;-68
2021/10/22 10:32:47;;;;;;;9.73;6.60;;;9.40;99.90;;;;;;5001358;28;20924;-67
2021/10/22 10:35:14;;;;;;;12.20;5.83;;;9.50;99.90;;;;;;4989119;28;20800;-67
2021/10/22 10:37:42;;;;;;;12.30;5.90;;;9.70;99.90;;;;;;4987198;28;20424;-69
2021/10/22 10:40:14;;;;;;;9.47;4.90;;;9.90;99.90;;;;;;4988340;28;20421;-68
2021/10/22 10:42:44;;;;;;;11.03;6.03;;;10.00;99.90;;;;;;5006565;28;20440;-62
2021/10/22 10:45:26;;;;;;;21.93;6.03;;;10.10;99.90;;;;;;4987154;28;20451;-62
2021/10/22 10:47:59;;;;;;;8.23;4.90;;;10.10;99.90;;;;;;5005503;28;20467;-62
2021/10/22 10:50:39;;;;;;;16.83;4.30;;;10.10;99.90;;;;;;5006069;28;20502;-68
2021/10/22 10:53:08;;;;;;;7.97;3.67;;;10.10;99.90;;;;;;4985944;28;20481;-61
2021/10/22 10:55:47;;;;;;;15.50;4.60;;;10.10;99.90;;;;;;4971684;28;20464;-62
2021/10/22 10:58:16;;;;;;;10.63;4.20;;;10.10;99.90;;;;;;5004713;28;20789;-60
2021/10/22 11:00:46;;;;;;;7.10;3.70;;;10.10;99.90;;;;;;5006865;28;20489;-63
2021/10/22 11:03:26;;;;;;;6.70;3.20;;;10.20;99.90;;;;;;5007156;28;20451;-69
2021/10/22 11:05:53;;;;;;;8.60;3.20;;;10.30;99.90;;;;;;4986663;28;21007;-63
2021/10/22 11:08:30;;;;;;;8.40;3.27;;;10.40;99.90;;;;;;4999584;28;20907;-61
2021/10/22 11:11:18;;;;;;;15.27;3.83;;;10.50;99.90;;;;;;5002610;28;20458;-61
2021/10/22 11:14:01;;;;;;;6.90;3.70;;;10.50;99.90;;;;;;5002760;28;20430;-66
2021/10/22 11:16:38;;;;;;;9.60;3.53;;;10.50;99.90;;;;;;5006860;28;20646;-65
2021/10/22 11:19:14;;;;;;;12.20;3.17;;;10.60;99.90;;;;;;4980031;28;20460;-61
2021/10/22 11:21:47;;;;;;;13.03;3.80;;;10.70;99.90;;;;;;5003626;28;20471;-64
2021/10/22 11:24:27;;;;;;;11.13;3.83;;;10.80;99.90;;;;;;5001725;28;20432;-61
2021/10/22 11:26:58;;;;;;;6.80;2.90;;;10.90;99.90;;;;;;5007374;28;20423;-64
2021/10/22 11:29:24;;;;;;;9.07;2.80;;;10.90;99.90;;;;;;5002301;28;20756;-60
2021/10/22 11:32:00;;;;;;;9.23;2.93;;;10.90;99.90;;;;;;5007829;28;20988;-62
2021/10/22 11:34:30;;;;;;;7.10;3.37;;;11.10;99.90;;;;;;5004834;28;20212;-63
2021/10/22 11:37:01;;;;;;;5.00;2.47;;;11.30;99.90;;;;;;5000093;28;20783;-64
2021/10/22 11:39:34;;;;;;;6.80;2.60;;;11.50;99.90;;;;;;5002027;28;20436;-60
2021/10/22 11:42:28;;;;;;;7.73;2.73;;;11.40;99.90;;;;;;5002009;28;20460;-60
2021/10/22 11:45:04;;;;;;;8.23;3.20;;;12.50;99.90;;;;;;5002362;28;20444;-65
2021/10/22 11:47:34;;;;;;;8.50;3.20;;;14.20;99.90;;;;;;5005827;28;20416;-63
2021/10/22 11:50:25;;;;;;;7.63;2.70;;;15.10;99.90;;;;;;5004697;28;20436;-63
2021/10/22 11:53:12;;;;;;;5.57;2.23;;;15.80;99.90;;;;;;5004685;28;20524;-60
2021/10/22 11:55:42;;;;;;;5.70;3.03;;;16.00;99.90;;;;;;4993527;28;20895;-65
2021/10/22 11:58:12;;;;;;;7.50;2.80;;;16.30;99.90;;;;;;5004511;28;20479;-65
2021/10/22 12:01:01;;;;;;;3.57;2.47;;;16.10;99.90;;;;;;4988079;28;20496;-64
2021/10/22 12:03:30;;;;;;;5.50;2.83;;;16.10;99.90;;;;;;4994401;28;20443;-64
2021/10/22 12:06:00;;;;;;;7.50;2.80;;;16.10;99.90;;;;;;5006886;28;20431;-65
2021/10/22 12:08:47;;;;;;;3.30;1.97;;;16.30;99.90;;;;;;5003768;28;21000;-65
2021/10/22 12:11:16;;;;;;;6.30;2.40;;;16.90;99.90;;;;;;5003873;28;20531;-65
2021/10/22 12:13:45;;;;;;;6.43;2.73;;;16.80;99.90;;;;;;5004560;28;20433;-68
2021/10/22 12:16:13;;;;;;;3.27;1.93;;;16.60;99.90;;;;;;5002888;28;20514;-66
2021/10/22 12:18:54;;;;;;;4.87;2.77;;;15.90;99.90;;;;;;5004431;28;20460;-65
2021/10/22 12:21:27;;;;;;;10.00;3.40;;;15.50;99.90;;;;;;5003422;28;20455;-66
2021/10/22 12:24:02;;;;;;;6.57;2.60;;;14.70;99.90;;;;;;5004785;28;20947;-65
2021/10/22 12:26:32;;;;;;;9.83;3.33;;;14.80;99.90;;;;;;5006709;28;20779;-65
2021/10/22 12:29:06;;;;;;;5.30;2.73;;;15.60;99.90;;;;;;5003440;28;20446;-65
2021/10/22 12:31:36;;;;;;;4.93;2.83;;;16.50;99.90;;;;;;5008351;28;20455;-65
2021/10/22 12:34:09;;;;;;;6.00;3.10;;;17.20;99.90;;;;;;4991520;28;20444;-64
2021/10/22 12:36:37;;;;;;;7.60;3.17;;;17.50;99.90;;;;;;5003871;28;20435;-65
2021/10/22 12:39:22;;;;;;;6.80;2.90;;;17.40;99.90;;;;;;5005850;28;20432;-61
2021/10/22 12:41:48;;;;;;;6.77;2.90;;;17.80;99.90;;;;;;5001824;28;20889;-61
2021/10/22 12:44:15;;;;;;;6.57;3.00;;;18.10;99.60;;;;;;5004841;28;21671;-64
2021/10/22 12:47:00;;;;;;;6.90;2.70;;;18.40;98.30;;;;;;5006800;28;20257;-65
2021/10/22 12:49:30;;;;;;;4.63;3.03;;;18.70;98.00;;;;;;4986231;28;20452;-62
2021/10/22 12:52:06;;;;;;;8.37;3.50;;;19.30;96.00;;;;;;4986945;28;20478;-65
2021/10/22 12:54:48;;;;;;;6.70;3.07;;;20.30;94.30;;;;;;5007854;28;20487;-65
2021/10/22 12:57:24;;;;;;;5.23;3.00;;;20.10;92.00;;;;;;4972395;28;21023;-65
2021/10/22 12:59:52;;;;;;;3.27;2.43;;;19.20;92.10;;;;;;5002303;28;20454;-64
2021/10/22 13:02:30;;;;;;;5.50;3.73;;;18.10;94.20;;;;;;5005014;28;20969;-64
2021/10/22 13:05:21;;;;;;;4.90;2.50;;;16.80;95.70;;;;;;4985441;28;20448;-65
2021/10/22 13:09:19;;;;;;;6.23;3.40;;;16.90;97.00;;;;;;5000114;28;20846;-66
2021/10/22 13:22:23;;;;;;;6.77;3.13;;;16.30;97.90;;;;;;5005950;28;20483;-64
2021/10/22 13:24:54;;;;;;;8.63;2.97;;;16.30;97.70;;;;;;4973392;28;20499;-64
2021/10/22 13:27:21;;;;;;;4.57;2.93;;;16.70;97.70;;;;;;4987566;28;20509;-64
2021/10/22 13:29:52;;;;;;;5.63;3.13;;;16.30;97.80;;;;;;4988851;28;20424;-64